WetterOnline ( http://www.wetteronline.de )

Wetter aktuell Greifswalder Bodden

Aktuelles Wetter: Greifswalder Oie (12m)

6-stündlich | Neueste Meldungen
Ortszeit Temperatur Wetter
Do, 21.06. 14:00 13.5° C leichter Regen
Do, 21.06. 8:00 18.8° C leicht bewölkt
Do, 21.06. 2:00 19.1° C fast wolkenlos
Mi, 20.06. 20:00 22.3° C fast wolkenlos
Mi, 20.06. 14:00 22.2° C wolkig
Mi, 20.06. 8:00 15.9° C wolkig
Mi, 20.06. 2:00 16.2° C wolkenlos
Di, 19.06. 20:00 20.0° C wolkenlos
Ortszeit Temperatur Wetter
Do, 21.06. 19:40 12.9° C bewölkt
Do, 21.06. 19:30 12.7° C leichter Regen
Do, 21.06. 19:20 12.7° C leichter Regen
Do, 21.06. 19:10 12.5° C leichter Regen
Do, 21.06. 19:00 12.1° C Regen
Do, 21.06. 18:50 12.1° C Sprühregen
Do, 21.06. 18:30 12.6° C Sprühregen
Do, 21.06. 18:00 13.4° C bewölkt
Do, 21.06. 17:30 13.3° C bewölkt
Do, 21.06. 17:00 13.2° C Sprühregen
Do, 21.06. 16:30 14.6° C leichter Regen
Ortszeit Relative Feuchte Sichtweite
Do, 21.06. 14:00 89% 9 km
Do, 21.06. 8:00 82% 6 km
Do, 21.06. 2:00 84% 11 km
Mi, 20.06. 20:00 71% 19 km
Mi, 20.06. 14:00 67% 13 km
Mi, 20.06. 8:00 78% 7 km
Mi, 20.06. 2:00 76% 21 km
Di, 19.06. 20:00 69% 11 km
Ortszeit Relative Feuchte Sichtweite
Do, 21.06. 19:40 78% -
Do, 21.06. 19:30 83% 8 km
Do, 21.06. 19:20 83% -
Do, 21.06. 19:10 84% -
Do, 21.06. 19:00 79% 12 km
Do, 21.06. 18:50 79% -
Do, 21.06. 18:30 89% 5.0 km
Do, 21.06. 18:00 80% 21 km
Do, 21.06. 17:30 79% 19 km
Do, 21.06. 17:00 85% 10 km
Do, 21.06. 16:30 83% 12 km
Ortszeit Niederschlagsmenge Niederschlagsart
Do, 21.06. 14:00 6 l/m2 in 6 Std. Regen
Do, 21.06. 8:00 0.0 l/m2 in 12 Std. -
Do, 21.06. 2:00 0.1 l/m2 in 6 Std. -
Mi, 20.06. 20:00 0.0 l/m2 in 12 Std. -
Mi, 20.06. 14:00 0.0 l/m2 in 6 Std. -
Mi, 20.06. 8:00 0.0 l/m2 in 12 Std. -
Mi, 20.06. 2:00 0.0 l/m2 in 6 Std. -
Di, 19.06. 20:00 0.0 l/m2 in 12 Std. -
Ortszeit Niederschlagsmenge Niederschlagsart
Do, 21.06. 19:40 keine Meldung -
Do, 21.06. 19:30 0.1 l/m2 in 1 Std. -
Do, 21.06. 19:20 keine Meldung -
Do, 21.06. 19:10 keine Meldung -
Do, 21.06. 19:00 1.7 l/m2 in 1 Std. Regen
Do, 21.06. 18:50 keine Meldung -
Do, 21.06. 18:30 1.6 l/m2 in 1 Std. -
Do, 21.06. 18:00 0.1 l/m2 in 1 Std. Regen
Do, 21.06. 17:30 0.1 l/m2 in 1 Std. Schneeregen
Do, 21.06. 17:00 0.8 l/m2 in 1 Std. Regen
Do, 21.06. 16:30 0.1 l/m2 in 1 Std. -
Ortszeit Stärke Spitze Richtung
km/h Bft. km/h Grad Sektor
Do, 21.06. 14:00 37 5 59 260° W
Do, 21.06. 8:00 22 4 32 230° SW
Do, 21.06. 2:00 18 3 29 280° W
Mi, 20.06. 20:00 18 3 43 230° SW
Mi, 20.06. 14:00 20 4 31 250° W
Mi, 20.06. 8:00 20 4 43 260° W
Mi, 20.06. 2:00 29 5 47 290° W
Di, 19.06. 20:00 35 5 44 300° NW
Ortszeit Stärke Spitze Richtung
km/h Bft. km/h Grad Sektor
Do, 21.06. 19:40 56 7 - 290° W
Do, 21.06. 19:30 52 7 72 290° W
Do, 21.06. 19:20 52 7 - 290° W
Do, 21.06. 19:10 56 7 - 300° NW
Do, 21.06. 19:00 58 7 76 300° NW
Do, 21.06. 18:50 58 7 - 300° NW
Do, 21.06. 18:30 54 7 76 290° W
Do, 21.06. 18:00 50 6 67 270° W
Do, 21.06. 17:30 37 5 63 300° NW
Do, 21.06. 17:00 54 7 86 280° W
Do, 21.06. 16:30 41 6 54 240° SW
Ortszeit Untergrenze Bedeckung Gattung
total tief tief mittel hoch
Do, 21.06. 14:00 330 m 7/8 7/8 - - -
Do, 21.06. 8:00 330 m 4/8 3/8 - - -
Do, 21.06. 2:00 3000 m 1/8 1/8 - - -
Mi, 20.06. 20:00 1410 m 1/8 1/8 - - -
Mi, 20.06. 14:00 1410 m 6/8 - - - -
Mi, 20.06. 8:00 450 m 8/8 3/8 - - -
Mi, 20.06. 2:00 - 0/8 0/8 - - -
Di, 19.06. 20:00 - 0/8 0/8 - - -
Ortszeit Bedeckungsgrad in Achtel und Wolkenuntergrenze
Do, 21.06. 19:40 4(540m) 5(1500m) 7(2400m)
Do, 21.06. 19:30 3(510m) 7(1500m) 7(1800m)
Do, 21.06. 19:20 3(510m) 7(1500m) 7(1800m)
Do, 21.06. 19:10 1(600m) 7(1500m) 7(2100m)
Do, 21.06. 19:00 2(480m) 7(1170m) 8(1440m)
Do, 21.06. 18:50 2(480m) 7(1170m) 8(1440m)
Do, 21.06. 18:30 4(420m) 6(1260m) 8(1500m)
Do, 21.06. 18:00 6(570m) 7(1080m) 7(1800m)
Do, 21.06. 17:30 6(1800m) 7(2100m) 8(3600m)
Do, 21.06. 17:00 3(450m) 6(1500m) 8(1800m)
Do, 21.06. 16:30 4(450m) 7(1320m) 8(2100m)
Ortszeit Luftdruck NN (hPa) Tendenz (hPa in 3 Std.)
Do, 21.06. 14:00 1008 + 0,5
Do, 21.06. 8:00 1009 - 1,6
Do, 21.06. 2:00 1013 - 1,2
Mi, 20.06. 20:00 1015 - 2,0
Mi, 20.06. 14:00 1019 - 2,2
Mi, 20.06. 8:00 1022 + 0,3
Mi, 20.06. 2:00 1021 + 0,4
Di, 19.06. 20:00 1020 + 0,4
Ortszeit Luftdruck NN (hPa) Tendenz (hPa in 3 Std.)
Do, 21.06. 19:40 1010 keine Meldung
Do, 21.06. 19:30 1009 + 1,9
Do, 21.06. 19:20 1009 keine Meldung
Do, 21.06. 19:10 1010 keine Meldung
Do, 21.06. 19:00 1009 + 1,9
Do, 21.06. 18:50 1009 keine Meldung
Do, 21.06. 18:30 1009 + 1,2
Do, 21.06. 18:00 1008 + 0,5
Do, 21.06. 17:30 1007 + 0,1
Do, 21.06. 17:00 1008 - 0,3
Do, 21.06. 16:30 1008 - 0,1
Ortszeit Schneehöhe (cm)
Do, 21.06. 14:00 -
Do, 21.06. 8:00 -
Do, 21.06. 2:00 -
Mi, 20.06. 20:00 -
Mi, 20.06. 14:00 -
Mi, 20.06. 8:00 -
Mi, 20.06. 2:00 -
Di, 19.06. 20:00 -
Ortszeit Schneehöhe (cm)
Do, 21.06. 19:40 -
Do, 21.06. 19:30 -
Do, 21.06. 19:20 -
Do, 21.06. 19:10 -
Do, 21.06. 19:00 -
Do, 21.06. 18:50 -
Do, 21.06. 18:30 -
Do, 21.06. 18:00 -
Do, 21.06. 17:30 -
Do, 21.06. 17:00 -
Do, 21.06. 16:30 -
Link zu dieser Seite / Seite empfehlen

Das Wetter in ...